sensor_id;sensor_type;location;lat;lon;timestamp;P1;durP1;ratioP1;P2;durP2;ratioP2
8279;SDS011;8335;42.646;23.380;2024-03-02T00:01:19;37.10;;;18.70;;
8279;SDS011;8335;42.646;23.380;2024-03-02T00:03:46;36.10;;;18.70;;
8279;SDS011;8335;42.646;23.380;2024-03-02T00:06:14;33.87;;;19.40;;
8279;SDS011;8335;42.646;23.380;2024-03-02T00:08:42;33.47;;;18.40;;
8279;SDS011;8335;42.646;23.380;2024-03-02T00:11:08;34.30;;;18.50;;
8279;SDS011;8335;42.646;23.380;2024-03-02T00:13:36;32.90;;;18.37;;
8279;SDS011;8335;42.646;23.380;2024-03-02T00:16:04;32.13;;;16.67;;
8279;SDS011;8335;42.646;23.380;2024-03-02T00:18:32;30.90;;;17.53;;
8279;SDS011;8335;42.646;23.380;2024-03-02T00:21:00;35.50;;;18.73;;
8279;SDS011;8335;42.646;23.380;2024-03-02T00:23:30;36.37;;;18.57;;
8279;SDS011;8335;42.646;23.380;2024-03-02T00:25:57;35.00;;;17.80;;
8279;SDS011;8335;42.646;23.380;2024-03-02T00:28:25;35.97;;;19.13;;
8279;SDS011;8335;42.646;23.380;2024-03-02T00:30:55;33.77;;;17.43;;
8279;SDS011;8335;42.646;23.380;2024-03-02T00:33:23;32.00;;;17.10;;
8279;SDS011;8335;42.646;23.380;2024-03-02T00:35:53;31.13;;;16.77;;
8279;SDS011;8335;42.646;23.380;2024-03-02T00:38:18;32.37;;;17.23;;
8279;SDS011;8335;42.646;23.380;2024-03-02T00:40:47;35.00;;;17.13;;
8279;SDS011;8335;42.646;23.380;2024-03-02T00:43:20;27.57;;;16.57;;
8279;SDS011;8335;42.646;23.380;2024-03-02T00:46:12;32.43;;;17.47;;
8279;SDS011;8335;42.646;23.380;2024-03-02T00:48:39;34.33;;;17.40;;
8279;SDS011;8335;42.646;23.380;2024-03-02T00:51:19;28.57;;;15.63;;
8279;SDS011;8335;42.646;23.380;2024-03-02T00:53:46;31.40;;;16.63;;
8279;SDS011;8335;42.646;23.380;2024-03-02T00:56:15;32.27;;;16.80;;
8279;SDS011;8335;42.646;23.380;2024-03-02T00:58:42;29.37;;;14.60;;
8279;SDS011;8335;42.646;23.380;2024-03-02T01:01:08;35.70;;;16.70;;
8279;SDS011;8335;42.646;23.380;2024-03-02T01:03:35;28.83;;;16.33;;
8279;SDS011;8335;42.646;23.380;2024-03-02T01:06:03;28.57;;;15.70;;
8279;SDS011;8335;42.646;23.380;2024-03-02T01:08:32;28.17;;;14.97;;
8279;SDS011;8335;42.646;23.380;2024-03-02T01:10:59;31.00;;;16.43;;
8279;SDS011;8335;42.646;23.380;2024-03-02T01:13:27;28.53;;;15.93;;
8279;SDS011;8335;42.646;23.380;2024-03-02T01:15:54;33.83;;;17.57;;
8279;SDS011;8335;42.646;23.380;2024-03-02T01:18:20;31.03;;;16.60;;
8279;SDS011;8335;42.646;23.380;2024-03-02T01:20:48;28.10;;;15.37;;
8279;SDS011;8335;42.646;23.380;2024-03-02T01:23:16;28.83;;;15.97;;
8279;SDS011;8335;42.646;23.380;2024-03-02T01:25:44;26.07;;;15.17;;
8279;SDS011;8335;42.646;23.380;2024-03-02T01:28:11;28.17;;;15.43;;
8279;SDS011;8335;42.646;23.380;2024-03-02T01:30:39;29.03;;;14.80;;
8279;SDS011;8335;42.646;23.380;2024-03-02T01:33:06;29.87;;;15.20;;
8279;SDS011;8335;42.646;23.380;2024-03-02T01:35:32;28.83;;;14.87;;
8279;SDS011;8335;42.646;23.380;2024-03-02T01:38:00;28.50;;;15.13;;
8279;SDS011;8335;42.646;23.380;2024-03-02T01:40:26;29.83;;;15.57;;
8279;SDS011;8335;42.646;23.380;2024-03-02T01:42:53;29.17;;;15.20;;
8279;SDS011;8335;42.646;23.380;2024-03-02T01:45:20;31.50;;;17.10;;
8279;SDS011;8335;42.646;23.380;2024-03-02T01:47:49;30.20;;;16.27;;
8279;SDS011;8335;42.646;23.380;2024-03-02T01:50:16;27.40;;;15.37;;
8279;SDS011;8335;42.646;23.380;2024-03-02T01:52:50;27.73;;;14.80;;
8279;SDS011;8335;42.646;23.380;2024-03-02T01:55:17;30.03;;;17.40;;
8279;SDS011;8335;42.646;23.380;2024-03-02T01:57:43;28.30;;;16.03;;
8279;SDS011;8335;42.646;23.380;2024-03-02T02:00:12;28.67;;;15.33;;
8279;SDS011;8335;42.646;23.380;2024-03-02T02:02:39;32.13;;;17.27;;
8279;SDS011;8335;42.646;23.380;2024-03-02T02:05:07;35.47;;;18.27;;
8279;SDS011;8335;42.646;23.380;2024-03-02T02:07:34;32.57;;;18.37;;
8279;SDS011;8335;42.646;23.380;2024-03-02T02:10:01;33.03;;;18.63;;
8279;SDS011;8335;42.646;23.380;2024-03-02T02:12:28;36.47;;;19.00;;
8279;SDS011;8335;42.646;23.380;2024-03-02T02:14:55;34.87;;;19.23;;
8279;SDS011;8335;42.646;23.380;2024-03-02T02:20:21;35.10;;;19.50;;
8279;SDS011;8335;42.646;23.380;2024-03-02T02:22:56;37.93;;;19.47;;
8279;SDS011;8335;42.646;23.380;2024-03-02T02:25:24;39.83;;;20.33;;
8279;SDS011;8335;42.646;23.380;2024-03-02T02:27:51;34.73;;;19.70;;
8279;SDS011;8335;42.646;23.380;2024-03-02T02:30:20;38.43;;;21.00;;
8279;SDS011;8335;42.646;23.380;2024-03-02T02:32:48;38.70;;;20.47;;
8279;SDS011;8335;42.646;23.380;2024-03-02T02:35:15;43.47;;;20.97;;
8279;SDS011;8335;42.646;23.380;2024-03-02T02:37:42;44.23;;;20.50;;
8279;SDS011;8335;42.646;23.380;2024-03-02T02:40:11;42.70;;;21.70;;
8279;SDS011;8335;42.646;23.380;2024-03-02T02:42:38;37.43;;;21.20;;
8279;SDS011;8335;42.646;23.380;2024-03-02T02:45:05;38.40;;;20.97;;
8279;SDS011;8335;42.646;23.380;2024-03-02T02:47:33;39.80;;;21.07;;
8279;SDS011;8335;42.646;23.380;2024-03-02T02:50:00;41.90;;;21.33;;
8279;SDS011;8335;42.646;23.380;2024-03-02T02:52:30;43.77;;;21.50;;
8279;SDS011;8335;42.646;23.380;2024-03-02T02:54:58;40.70;;;20.17;;
8279;SDS011;8335;42.646;23.380;2024-03-02T02:57:26;41.40;;;21.63;;
8279;SDS011;8335;42.646;23.380;2024-03-02T02:59:53;38.13;;;19.90;;
8279;SDS011;8335;42.646;23.380;2024-03-02T03:02:19;37.70;;;20.10;;
8279;SDS011;8335;42.646;23.380;2024-03-02T03:04:46;36.50;;;19.47;;
8279;SDS011;8335;42.646;23.380;2024-03-02T03:07:13;38.57;;;20.10;;
8279;SDS011;8335;42.646;23.380;2024-03-02T03:09:40;36.33;;;19.80;;
8279;SDS011;8335;42.646;23.380;2024-03-02T03:12:06;35.63;;;20.27;;
8279;SDS011;8335;42.646;23.380;2024-03-02T03:14:35;41.03;;;20.63;;
8279;SDS011;8335;42.646;23.380;2024-03-02T03:17:01;33.17;;;19.07;;
8279;SDS011;8335;42.646;23.380;2024-03-02T03:19:28;34.07;;;18.77;;
8279;SDS011;8335;42.646;23.380;2024-03-02T03:21:56;36.57;;;18.63;;
8279;SDS011;8335;42.646;23.380;2024-03-02T03:24:22;41.37;;;19.13;;
8279;SDS011;8335;42.646;23.380;2024-03-02T03:26:49;34.53;;;18.90;;
8279;SDS011;8335;42.646;23.380;2024-03-02T03:29:15;41.67;;;20.17;;
8279;SDS011;8335;42.646;23.380;2024-03-02T03:31:43;35.27;;;19.50;;
8279;SDS011;8335;42.646;23.380;2024-03-02T03:34:10;36.63;;;18.93;;
8279;SDS011;8335;42.646;23.380;2024-03-02T03:36:40;34.17;;;18.33;;
8279;SDS011;8335;42.646;23.380;2024-03-02T03:39:07;37.77;;;19.00;;
8279;SDS011;8335;42.646;23.380;2024-03-02T03:41:34;35.40;;;18.43;;
8279;SDS011;8335;42.646;23.380;2024-03-02T03:44:01;32.10;;;18.57;;
8279;SDS011;8335;42.646;23.380;2024-03-02T03:46:28;35.47;;;18.80;;
8279;SDS011;8335;42.646;23.380;2024-03-02T03:48:56;35.23;;;19.13;;
8279;SDS011;8335;42.646;23.380;2024-03-02T03:51:23;32.60;;;18.67;;
8279;SDS011;8335;42.646;23.380;2024-03-02T03:53:49;33.03;;;17.50;;
8279;SDS011;8335;42.646;23.380;2024-03-02T03:56:16;30.57;;;17.60;;
8279;SDS011;8335;42.646;23.380;2024-03-02T03:58:43;34.77;;;18.50;;
8279;SDS011;8335;42.646;23.380;2024-03-02T04:01:09;34.30;;;18.77;;
8279;SDS011;8335;42.646;23.380;2024-03-02T04:03:36;32.90;;;18.50;;
8279;SDS011;8335;42.646;23.380;2024-03-02T04:06:05;37.37;;;18.97;;
8279;SDS011;8335;42.646;23.380;2024-03-02T04:08:32;37.53;;;20.00;;
8279;SDS011;8335;42.646;23.380;2024-03-02T04:10:59;35.23;;;19.23;;
8279;SDS011;8335;42.646;23.380;2024-03-02T04:13:25;37.03;;;19.40;;
8279;SDS011;8335;42.646;23.380;2024-03-02T04:15:52;36.07;;;19.77;;
8279;SDS011;8335;42.646;23.380;2024-03-02T04:18:19;33.93;;;19.60;;
8279;SDS011;8335;42.646;23.380;2024-03-02T04:20:45;38.47;;;19.90;;
8279;SDS011;8335;42.646;23.380;2024-03-02T04:23:13;37.50;;;19.83;;
8279;SDS011;8335;42.646;23.380;2024-03-02T04:25:40;34.53;;;18.90;;
8279;SDS011;8335;42.646;23.380;2024-03-02T04:28:06;35.23;;;18.97;;
8279;SDS011;8335;42.646;23.380;2024-03-02T04:30:33;34.17;;;18.47;;
8279;SDS011;8335;42.646;23.380;2024-03-02T04:33:00;35.13;;;18.60;;
8279;SDS011;8335;42.646;23.380;2024-03-02T04:35:27;30.77;;;17.37;;
8279;SDS011;8335;42.646;23.380;2024-03-02T04:37:54;32.00;;;18.57;;
8279;SDS011;8335;42.646;23.380;2024-03-02T04:40:22;35.03;;;17.67;;
8279;SDS011;8335;42.646;23.380;2024-03-02T04:42:48;30.97;;;18.03;;
8279;SDS011;8335;42.646;23.380;2024-03-02T04:45:15;36.70;;;17.23;;
8279;SDS011;8335;42.646;23.380;2024-03-02T04:47:42;35.37;;;19.20;;
8279;SDS011;8335;42.646;23.380;2024-03-02T04:50:08;36.47;;;18.90;;
8279;SDS011;8335;42.646;23.380;2024-03-02T04:52:38;31.77;;;17.67;;
8279;SDS011;8335;42.646;23.380;2024-03-02T04:55:04;38.17;;;19.30;;
8279;SDS011;8335;42.646;23.380;2024-03-02T04:57:55;34.70;;;18.40;;
8279;SDS011;8335;42.646;23.380;2024-03-02T05:00:22;36.07;;;18.50;;
8279;SDS011;8335;42.646;23.380;2024-03-02T05:02:49;35.80;;;19.17;;
8279;SDS011;8335;42.646;23.380;2024-03-02T05:05:16;42.40;;;19.43;;
8279;SDS011;8335;42.646;23.380;2024-03-02T05:07:42;39.90;;;20.20;;
8279;SDS011;8335;42.646;23.380;2024-03-02T05:10:09;35.50;;;19.80;;
8279;SDS011;8335;42.646;23.380;2024-03-02T05:12:37;34.07;;;18.33;;
8279;SDS011;8335;42.646;23.380;2024-03-02T05:15:23;30.40;;;16.23;;
8279;SDS011;8335;42.646;23.380;2024-03-02T05:17:49;31.80;;;18.00;;
8279;SDS011;8335;42.646;23.380;2024-03-02T05:20:16;31.53;;;17.80;;
8279;SDS011;8335;42.646;23.380;2024-03-02T05:22:43;31.47;;;18.23;;
8279;SDS011;8335;42.646;23.380;2024-03-02T05:25:09;30.23;;;17.03;;
8279;SDS011;8335;42.646;23.380;2024-03-02T05:27:36;32.27;;;17.93;;
8279;SDS011;8335;42.646;23.380;2024-03-02T05:30:04;33.27;;;18.23;;
8279;SDS011;8335;42.646;23.380;2024-03-02T05:32:33;28.70;;;16.60;;
8279;SDS011;8335;42.646;23.380;2024-03-02T05:35:00;34.37;;;16.77;;
8279;SDS011;8335;42.646;23.380;2024-03-02T05:37:28;29.93;;;16.03;;
8279;SDS011;8335;42.646;23.380;2024-03-02T05:39:54;26.97;;;15.40;;
8279;SDS011;8335;42.646;23.380;2024-03-02T05:42:21;31.47;;;17.33;;
8279;SDS011;8335;42.646;23.380;2024-03-02T05:44:48;37.47;;;17.77;;
8279;SDS011;8335;42.646;23.380;2024-03-02T05:47:14;28.20;;;15.60;;
8279;SDS011;8335;42.646;23.380;2024-03-02T05:49:42;32.27;;;17.10;;
8279;SDS011;8335;42.646;23.380;2024-03-02T05:52:09;33.10;;;17.13;;
8279;SDS011;8335;42.646;23.380;2024-03-02T05:54:36;30.33;;;15.77;;
8279;SDS011;8335;42.646;23.380;2024-03-02T05:57:03;32.17;;;17.87;;
8279;SDS011;8335;42.646;23.380;2024-03-02T05:59:51;36.90;;;19.13;;
8279;SDS011;8335;42.646;23.380;2024-03-02T06:02:19;40.63;;;19.60;;
8279;SDS011;8335;42.646;23.380;2024-03-02T06:04:46;38.43;;;20.87;;
8279;SDS011;8335;42.646;23.380;2024-03-02T06:07:13;41.63;;;21.00;;
8279;SDS011;8335;42.646;23.380;2024-03-02T06:09:40;46.17;;;20.80;;
8279;SDS011;8335;42.646;23.380;2024-03-02T06:12:07;41.97;;;19.73;;
8279;SDS011;8335;42.646;23.380;2024-03-02T06:14:34;42.77;;;20.37;;
8279;SDS011;8335;42.646;23.380;2024-03-02T06:17:00;41.30;;;20.33;;
8279;SDS011;8335;42.646;23.380;2024-03-02T06:19:27;37.93;;;20.17;;
8279;SDS011;8335;42.646;23.380;2024-03-02T06:21:55;40.70;;;20.50;;
8279;SDS011;8335;42.646;23.380;2024-03-02T06:24:22;40.77;;;19.30;;
8279;SDS011;8335;42.646;23.380;2024-03-02T06:26:49;41.53;;;19.87;;
8279;SDS011;8335;42.646;23.380;2024-03-02T06:29:15;37.53;;;18.70;;
8279;SDS011;8335;42.646;23.380;2024-03-02T06:31:41;37.97;;;19.03;;
8279;SDS011;8335;42.646;23.380;2024-03-02T06:34:07;39.57;;;19.37;;
8279;SDS011;8335;42.646;23.380;2024-03-02T06:36:34;36.93;;;18.47;;
8279;SDS011;8335;42.646;23.380;2024-03-02T06:39:02;37.73;;;19.10;;
8279;SDS011;8335;42.646;23.380;2024-03-02T06:41:29;39.70;;;19.20;;
8279;SDS011;8335;42.646;23.380;2024-03-02T06:43:56;38.47;;;18.90;;
8279;SDS011;8335;42.646;23.380;2024-03-02T06:46:24;36.97;;;19.17;;
8279;SDS011;8335;42.646;23.380;2024-03-02T06:48:51;35.20;;;18.17;;
8279;SDS011;8335;42.646;23.380;2024-03-02T06:51:18;39.17;;;18.57;;
8279;SDS011;8335;42.646;23.380;2024-03-02T06:53:44;41.83;;;20.30;;
8279;SDS011;8335;42.646;23.380;2024-03-02T06:56:13;37.20;;;19.03;;
8279;SDS011;8335;42.646;23.380;2024-03-02T06:58:39;37.73;;;18.73;;
8279;SDS011;8335;42.646;23.380;2024-03-02T07:01:08;33.73;;;18.00;;
8279;SDS011;8335;42.646;23.380;2024-03-02T07:03:35;40.80;;;18.77;;
8279;SDS011;8335;42.646;23.380;2024-03-02T07:06:01;36.83;;;18.57;;
8279;SDS011;8335;42.646;23.380;2024-03-02T07:08:28;40.20;;;19.60;;
8279;SDS011;8335;42.646;23.380;2024-03-02T07:10:55;43.10;;;19.33;;
8279;SDS011;8335;42.646;23.380;2024-03-02T07:13:23;36.60;;;19.23;;
8279;SDS011;8335;42.646;23.380;2024-03-02T07:15:50;41.07;;;19.47;;
8279;SDS011;8335;42.646;23.380;2024-03-02T07:18:40;41.23;;;19.87;;
8279;SDS011;8335;42.646;23.380;2024-03-02T07:21:10;37.90;;;19.20;;
8279;SDS011;8335;42.646;23.380;2024-03-02T07:23:36;42.00;;;18.13;;
8279;SDS011;8335;42.646;23.380;2024-03-02T07:26:03;42.27;;;20.10;;
8279;SDS011;8335;42.646;23.380;2024-03-02T07:28:32;36.17;;;17.90;;
8279;SDS011;8335;42.646;23.380;2024-03-02T07:30:59;35.50;;;18.77;;
8279;SDS011;8335;42.646;23.380;2024-03-02T07:33:26;36.23;;;18.53;;
8279;SDS011;8335;42.646;23.380;2024-03-02T07:35:53;39.47;;;18.47;;
8279;SDS011;8335;42.646;23.380;2024-03-02T07:38:20;36.37;;;18.03;;
8279;SDS011;8335;42.646;23.380;2024-03-02T07:40:47;36.37;;;17.90;;
8279;SDS011;8335;42.646;23.380;2024-03-02T07:43:15;39.73;;;19.53;;
8279;SDS011;8335;42.646;23.380;2024-03-02T07:45:44;39.43;;;19.33;;
8279;SDS011;8335;42.646;23.380;2024-03-02T07:48:10;36.90;;;19.03;;
8279;SDS011;8335;42.646;23.380;2024-03-02T07:50:37;36.23;;;18.50;;
8279;SDS011;8335;42.646;23.380;2024-03-02T07:53:04;45.23;;;19.63;;
8279;SDS011;8335;42.646;23.380;2024-03-02T07:55:31;38.27;;;19.50;;
8279;SDS011;8335;42.646;23.380;2024-03-02T07:57:57;36.53;;;18.80;;
8279;SDS011;8335;42.646;23.380;2024-03-02T08:00:24;31.07;;;16.93;;
8279;SDS011;8335;42.646;23.380;2024-03-02T08:02:53;39.83;;;18.83;;
8279;SDS011;8335;42.646;23.380;2024-03-02T08:05:21;35.83;;;18.67;;
8279;SDS011;8335;42.646;23.380;2024-03-02T08:07:48;43.33;;;21.23;;
8279;SDS011;8335;42.646;23.380;2024-03-02T08:10:17;40.10;;;20.27;;
8279;SDS011;8335;42.646;23.380;2024-03-02T08:12:45;44.93;;;21.33;;
8279;SDS011;8335;42.646;23.380;2024-03-02T08:15:12;36.13;;;18.77;;
8279;SDS011;8335;42.646;23.380;2024-03-02T08:17:39;37.93;;;20.43;;
8279;SDS011;8335;42.646;23.380;2024-03-02T08:20:11;38.87;;;19.67;;
8279;SDS011;8335;42.646;23.380;2024-03-02T08:22:38;38.03;;;18.43;;
8279;SDS011;8335;42.646;23.380;2024-03-02T08:25:05;36.73;;;17.73;;
8279;SDS011;8335;42.646;23.380;2024-03-02T08:27:32;30.67;;;17.47;;
8279;SDS011;8335;42.646;23.380;2024-03-02T08:29:59;34.50;;;17.97;;
8279;SDS011;8335;42.646;23.380;2024-03-02T08:32:26;39.00;;;16.70;;
8279;SDS011;8335;42.646;23.380;2024-03-02T08:34:52;33.23;;;16.47;;
8279;SDS011;8335;42.646;23.380;2024-03-02T08:37:21;32.57;;;16.47;;
8279;SDS011;8335;42.646;23.380;2024-03-02T08:39:47;30.97;;;16.53;;
8279;SDS011;8335;42.646;23.380;2024-03-02T08:42:15;32.87;;;16.47;;
8279;SDS011;8335;42.646;23.380;2024-03-02T08:44:42;29.50;;;16.60;;
8279;SDS011;8335;42.646;23.380;2024-03-02T08:47:09;32.90;;;16.43;;
8279;SDS011;8335;42.646;23.380;2024-03-02T08:49:36;31.30;;;15.67;;
8279;SDS011;8335;42.646;23.380;2024-03-02T08:52:03;34.10;;;16.97;;
8279;SDS011;8335;42.646;23.380;2024-03-02T08:54:31;30.13;;;16.17;;
8279;SDS011;8335;42.646;23.380;2024-03-02T08:56:58;33.97;;;17.23;;
8279;SDS011;8335;42.646;23.380;2024-03-02T08:59:26;37.87;;;17.40;;
8279;SDS011;8335;42.646;23.380;2024-03-02T09:01:53;32.87;;;15.93;;
8279;SDS011;8335;42.646;23.380;2024-03-02T09:04:19;33.87;;;17.10;;
8279;SDS011;8335;42.646;23.380;2024-03-02T09:06:46;29.70;;;16.63;;
8279;SDS011;8335;42.646;23.380;2024-03-02T09:09:13;31.27;;;16.70;;
8279;SDS011;8335;42.646;23.380;2024-03-02T09:11:41;29.67;;;16.20;;
8279;SDS011;8335;42.646;23.380;2024-03-02T09:14:08;30.60;;;15.17;;
8279;SDS011;8335;42.646;23.380;2024-03-02T09:16:34;26.63;;;14.13;;
8279;SDS011;8335;42.646;23.380;2024-03-02T09:19:01;23.07;;;13.67;;
8279;SDS011;8335;42.646;23.380;2024-03-02T09:21:28;25.87;;;14.47;;
8279;SDS011;8335;42.646;23.380;2024-03-02T09:23:55;23.17;;;13.77;;
8279;SDS011;8335;42.646;23.380;2024-03-02T09:26:21;21.83;;;12.57;;
8279;SDS011;8335;42.646;23.380;2024-03-02T09:28:51;24.53;;;13.63;;
8279;SDS011;8335;42.646;23.380;2024-03-02T09:31:17;27.10;;;14.30;;
8279;SDS011;8335;42.646;23.380;2024-03-02T09:33:44;23.20;;;13.67;;
8279;SDS011;8335;42.646;23.380;2024-03-02T09:36:17;24.97;;;14.77;;
8279;SDS011;8335;42.646;23.380;2024-03-02T09:38:44;25.07;;;14.77;;
8279;SDS011;8335;42.646;23.380;2024-03-02T09:41:11;31.23;;;14.47;;
8279;SDS011;8335;42.646;23.380;2024-03-02T09:43:38;27.90;;;15.53;;
8279;SDS011;8335;42.646;23.380;2024-03-02T09:46:06;24.03;;;14.73;;
8279;SDS011;8335;42.646;23.380;2024-03-02T09:48:35;29.63;;;15.20;;
8279;SDS011;8335;42.646;23.380;2024-03-02T09:51:02;25.67;;;14.10;;
8279;SDS011;8335;42.646;23.380;2024-03-02T09:53:31;26.87;;;14.50;;
8279;SDS011;8335;42.646;23.380;2024-03-02T09:55:59;28.27;;;15.67;;
8279;SDS011;8335;42.646;23.380;2024-03-02T09:58:26;29.07;;;16.33;;
8279;SDS011;8335;42.646;23.380;2024-03-02T10:00:53;32.43;;;17.97;;
8279;SDS011;8335;42.646;23.380;2024-03-02T10:03:21;33.53;;;18.40;;
8279;SDS011;8335;42.646;23.380;2024-03-02T10:05:49;35.23;;;17.97;;
8279;SDS011;8335;42.646;23.380;2024-03-02T10:08:16;34.37;;;19.10;;
8279;SDS011;8335;42.646;23.380;2024-03-02T10:10:43;40.13;;;19.37;;
8279;SDS011;8335;42.646;23.380;2024-03-02T10:13:10;33.47;;;18.80;;
8279;SDS011;8335;42.646;23.380;2024-03-02T10:15:38;36.50;;;17.67;;
8279;SDS011;8335;42.646;23.380;2024-03-02T10:18:08;31.90;;;17.77;;
8279;SDS011;8335;42.646;23.380;2024-03-02T10:20:37;30.37;;;17.37;;
8279;SDS011;8335;42.646;23.380;2024-03-02T10:23:11;34.50;;;17.87;;
8279;SDS011;8335;42.646;23.380;2024-03-02T10:25:38;29.17;;;16.33;;
8279;SDS011;8335;42.646;23.380;2024-03-02T10:28:05;30.30;;;17.37;;
8279;SDS011;8335;42.646;23.380;2024-03-02T10:30:33;26.77;;;16.80;;
8279;SDS011;8335;42.646;23.380;2024-03-02T10:33:00;28.73;;;16.20;;
8279;SDS011;8335;42.646;23.380;2024-03-02T10:35:28;29.10;;;17.47;;
8279;SDS011;8335;42.646;23.380;2024-03-02T10:37:57;28.67;;;17.43;;
8279;SDS011;8335;42.646;23.380;2024-03-02T10:40:26;24.20;;;14.30;;
8279;SDS011;8335;42.646;23.380;2024-03-02T10:42:52;28.30;;;16.33;;
8279;SDS011;8335;42.646;23.380;2024-03-02T10:45:20;27.13;;;16.03;;
8279;SDS011;8335;42.646;23.380;2024-03-02T10:47:47;25.43;;;14.50;;
8279;SDS011;8335;42.646;23.380;2024-03-02T10:50:14;28.83;;;14.40;;
8279;SDS011;8335;42.646;23.380;2024-03-02T10:52:41;21.77;;;13.07;;
8279;SDS011;8335;42.646;23.380;2024-03-02T10:55:09;28.40;;;14.57;;
8279;SDS011;8335;42.646;23.380;2024-03-02T10:57:40;23.00;;;13.87;;
8279;SDS011;8335;42.646;23.380;2024-03-02T11:00:11;23.77;;;13.97;;
8279;SDS011;8335;42.646;23.380;2024-03-02T11:02:42;24.43;;;13.80;;
8279;SDS011;8335;42.646;23.380;2024-03-02T11:05:11;23.17;;;14.30;;
8279;SDS011;8335;42.646;23.380;2024-03-02T11:07:43;26.23;;;14.20;;
8279;SDS011;8335;42.646;23.380;2024-03-02T11:10:12;25.17;;;14.63;;
8279;SDS011;8335;42.646;23.380;2024-03-02T11:12:44;21.77;;;13.53;;
8279;SDS011;8335;42.646;23.380;2024-03-02T11:15:19;22.30;;;13.83;;
8279;SDS011;8335;42.646;23.380;2024-03-02T11:17:50;20.37;;;12.87;;
8279;SDS011;8335;42.646;23.380;2024-03-02T11:20:18;24.77;;;13.87;;
8279;SDS011;8335;42.646;23.380;2024-03-02T11:22:45;21.17;;;13.00;;
8279;SDS011;8335;42.646;23.380;2024-03-02T11:25:24;22.93;;;12.63;;
8279;SDS011;8335;42.646;23.380;2024-03-02T11:28:03;19.70;;;12.40;;
8279;SDS011;8335;42.646;23.380;2024-03-02T11:30:52;22.80;;;13.77;;
8279;SDS011;8335;42.646;23.380;2024-03-02T11:33:25;29.53;;;14.47;;
8279;SDS011;8335;42.646;23.380;2024-03-02T11:35:54;22.80;;;14.03;;
8279;SDS011;8335;42.646;23.380;2024-03-02T11:38:22;22.90;;;12.90;;
8279;SDS011;8335;42.646;23.380;2024-03-02T11:40:51;24.87;;;13.83;;
8279;SDS011;8335;42.646;23.380;2024-03-02T11:43:18;23.83;;;13.53;;
8279;SDS011;8335;42.646;23.380;2024-03-02T11:45:45;23.97;;;13.83;;
8279;SDS011;8335;42.646;23.380;2024-03-02T11:48:13;22.87;;;13.00;;
8279;SDS011;8335;42.646;23.380;2024-03-02T11:50:41;21.97;;;13.13;;
8279;SDS011;8335;42.646;23.380;2024-03-02T11:53:12;23.87;;;13.27;;
8279;SDS011;8335;42.646;23.380;2024-03-02T11:55:39;18.20;;;12.03;;
8279;SDS011;8335;42.646;23.380;2024-03-02T11:58:08;21.67;;;12.53;;
8279;SDS011;8335;42.646;23.380;2024-03-02T12:00:35;18.23;;;11.10;;
8279;SDS011;8335;42.646;23.380;2024-03-02T12:03:02;20.17;;;11.33;;
8279;SDS011;8335;42.646;23.380;2024-03-02T12:05:32;19.57;;;11.80;;
8279;SDS011;8335;42.646;23.380;2024-03-02T12:08:00;21.33;;;12.37;;
8279;SDS011;8335;42.646;23.380;2024-03-02T12:10:28;19.57;;;11.63;;
8279;SDS011;8335;42.646;23.380;2024-03-02T12:12:56;18.33;;;11.63;;
8279;SDS011;8335;42.646;23.380;2024-03-02T12:15:25;19.67;;;12.00;;
8279;SDS011;8335;42.646;23.380;2024-03-02T12:17:53;19.60;;;11.97;;
8279;SDS011;8335;42.646;23.380;2024-03-02T12:20:20;21.10;;;11.70;;
8279;SDS011;8335;42.646;23.380;2024-03-02T12:22:48;20.27;;;11.87;;
8279;SDS011;8335;42.646;23.380;2024-03-02T12:25:15;18.43;;;11.37;;
8279;SDS011;8335;42.646;23.380;2024-03-02T12:27:42;17.10;;;11.17;;
8279;SDS011;8335;42.646;23.380;2024-03-02T12:30:11;18.83;;;11.07;;
8279;SDS011;8335;42.646;23.380;2024-03-02T12:32:40;18.00;;;11.03;;
8279;SDS011;8335;42.646;23.380;2024-03-02T12:35:07;18.70;;;11.40;;
8279;SDS011;8335;42.646;23.380;2024-03-02T12:37:41;18.03;;;11.37;;
8279;SDS011;8335;42.646;23.380;2024-03-02T12:40:09;18.00;;;10.97;;
8279;SDS011;8335;42.646;23.380;2024-03-02T12:42:36;17.20;;;11.63;;
8279;SDS011;8335;42.646;23.380;2024-03-02T12:45:03;16.47;;;10.30;;
8279;SDS011;8335;42.646;23.380;2024-03-02T12:47:30;17.23;;;10.87;;
8279;SDS011;8335;42.646;23.380;2024-03-02T12:49:59;15.83;;;10.73;;
8279;SDS011;8335;42.646;23.380;2024-03-02T12:52:26;16.10;;;10.30;;
8279;SDS011;8335;42.646;23.380;2024-03-02T12:54:53;16.83;;;10.90;;
8279;SDS011;8335;42.646;23.380;2024-03-02T12:57:24;16.93;;;10.87;;
8279;SDS011;8335;42.646;23.380;2024-03-02T12:59:52;19.23;;;11.30;;
8279;SDS011;8335;42.646;23.380;2024-03-02T13:02:19;17.07;;;11.10;;
8279;SDS011;8335;42.646;23.380;2024-03-02T13:04:51;18.07;;;11.63;;
8279;SDS011;8335;42.646;23.380;2024-03-02T13:07:20;19.60;;;11.67;;
8279;SDS011;8335;42.646;23.380;2024-03-02T13:09:48;19.40;;;11.40;;
8279;SDS011;8335;42.646;23.380;2024-03-02T13:12:15;18.90;;;11.90;;
8279;SDS011;8335;42.646;23.380;2024-03-02T13:14:42;22.13;;;12.67;;
8279;SDS011;8335;42.646;23.380;2024-03-02T13:17:09;21.13;;;13.37;;
8279;SDS011;8335;42.646;23.380;2024-03-02T13:19:35;20.10;;;12.37;;
8279;SDS011;8335;42.646;23.380;2024-03-02T13:22:02;19.77;;;12.27;;
8279;SDS011;8335;42.646;23.380;2024-03-02T13:24:30;18.80;;;12.17;;
8279;SDS011;8335;42.646;23.380;2024-03-02T13:26:58;18.27;;;11.67;;
8279;SDS011;8335;42.646;23.380;2024-03-02T13:29:25;19.20;;;11.93;;
8279;SDS011;8335;42.646;23.380;2024-03-02T13:31:52;20.47;;;11.93;;
8279;SDS011;8335;42.646;23.380;2024-03-02T13:34:19;17.30;;;11.83;;
8279;SDS011;8335;42.646;23.380;2024-03-02T13:36:46;20.57;;;12.60;;
8279;SDS011;8335;42.646;23.380;2024-03-02T13:39:12;19.00;;;11.90;;
8279;SDS011;8335;42.646;23.380;2024-03-02T13:41:42;17.60;;;11.70;;
8279;SDS011;8335;42.646;23.380;2024-03-02T13:44:16;18.47;;;12.47;;
8279;SDS011;8335;42.646;23.380;2024-03-02T13:46:43;16.50;;;11.43;;
8279;SDS011;8335;42.646;23.380;2024-03-02T13:49:10;19.97;;;12.13;;
8279;SDS011;8335;42.646;23.380;2024-03-02T13:51:37;19.03;;;12.33;;
8279;SDS011;8335;42.646;23.380;2024-03-02T13:54:04;20.07;;;12.60;;
8279;SDS011;8335;42.646;23.380;2024-03-02T13:56:31;18.43;;;11.37;;
8279;SDS011;8335;42.646;23.380;2024-03-02T13:58:59;18.93;;;11.37;;
8279;SDS011;8335;42.646;23.380;2024-03-02T14:01:26;22.37;;;13.20;;
8279;SDS011;8335;42.646;23.380;2024-03-02T14:03:52;20.07;;;12.63;;
8279;SDS011;8335;42.646;23.380;2024-03-02T14:06:20;17.20;;;11.33;;
8279;SDS011;8335;42.646;23.380;2024-03-02T14:08:47;19.07;;;12.33;;
8279;SDS011;8335;42.646;23.380;2024-03-02T14:11:14;20.07;;;12.17;;
8279;SDS011;8335;42.646;23.380;2024-03-02T14:13:41;21.53;;;13.50;;
8279;SDS011;8335;42.646;23.380;2024-03-02T14:16:10;19.10;;;12.53;;
8279;SDS011;8335;42.646;23.380;2024-03-02T14:18:37;20.07;;;13.00;;
8279;SDS011;8335;42.646;23.380;2024-03-02T14:21:04;19.67;;;12.50;;
8279;SDS011;8335;42.646;23.380;2024-03-02T14:23:31;17.83;;;11.77;;
8279;SDS011;8335;42.646;23.380;2024-03-02T14:25:58;19.73;;;12.83;;
8279;SDS011;8335;42.646;23.380;2024-03-02T14:28:24;21.57;;;13.40;;
8279;SDS011;8335;42.646;23.380;2024-03-02T14:30:51;20.50;;;13.40;;
8279;SDS011;8335;42.646;23.380;2024-03-02T14:33:20;20.30;;;13.63;;
8279;SDS011;8335;42.646;23.380;2024-03-02T14:35:46;23.63;;;13.70;;
8279;SDS011;8335;42.646;23.380;2024-03-02T14:38:13;26.37;;;15.37;;
8279;SDS011;8335;42.646;23.380;2024-03-02T14:40:40;26.07;;;15.73;;